Weather reports worldwide

Advertisment
Cartagena, Spain (8434): temperature & dewpoint: 04.07.2020 05:00:00 - 10.07.2020 05:00:00 (CEST)Cartagena, Spain (8434): wind speed & gusts: 04.07.2020 05:00:00 - 10.07.2020 05:00:00 (CEST)Cartagena, Spain (8434): wind direction: 04.07.2020 05:00:00 - 10.07.2020 05:00:00 (CEST)Cartagena, Spain (8434): precipitation: 04.07.2020 05:00:00 - 10.07.2020 05:00:00 (CEST)
Date & Time tt [°C] td [°C] ff [km/h] ff [kn] fx [km/h] fx [kn] dd rr [mm]
10.07.2020 05:00:00 - - - - - - - -
10.07.2020 04:00:00 23,7 18,1 4 2 12 7 NW 0,0
10.07.2020 03:00:00 23,9 18,3 4 2 10 6 NW 0,0
10.07.2020 02:00:00 24,2 18,6 6 3 13 7 NW -
10.07.2020 01:00:00 24,9 19,1 6 3 14 8 NNW 0,0
10.07.2020 00:00:00 25,3 19,2 7 4 20 11 N 0,0
09.07.2020 23:00:00 25,7 20,0 7 4 18 10 N 0,0
09.07.2020 22:00:00 25,8 19,9 5 3 21 11 NNE 0,0
09.07.2020 21:00:00 26,2 19,8 9 5 24 13 NE 0,0
09.07.2020 20:00:00 26,9 19,8 7 4 24 13 ENE -
09.07.2020 19:00:00 27,3 19,6 10 6 24 13 ENE 0,0
09.07.2020 18:00:00 27,3 19,4 10 5 31 17 NE 0,0
09.07.2020 17:00:00 27,0 18,8 11 6 33 18 ENE 0,0
09.07.2020 16:00:00 27,8 19,3 14 7 32 18 NE 0,0
09.07.2020 15:00:00 28,0 18,4 15 8 35 19 ENE 0,0
09.07.2020 14:00:00 28,3 18,7 12 6 33 18 NE -
09.07.2020 13:00:00 28,0 18,4 16 8 34 18 ENE 0,0
09.07.2020 12:00:00 27,8 18,5 12 7 30 16 NE 0,0
09.07.2020 11:00:00 27,9 18,6 9 5 25 14 NE 0,0
09.07.2020 10:00:00 26,8 18,9 8 4 18 10 NE 0,0
09.07.2020 09:00:00 25,7 18,6 8 4 16 9 N 0,0
09.07.2020 08:00:00 24,1 18,1 5 3 16 8 NW -
09.07.2020 07:00:00 23,4 18,3 6 3 16 9 NNW 0,0
09.07.2020 06:00:00 23,3 19,0 5 3 21 11 NW 0,1
09.07.2020 05:00:00 23,7 19,2 1 0 20 11 NW 0,0
09.07.2020 04:00:00 23,9 19,8 8 4 21 11 N 1,1
09.07.2020 03:00:00 24,6 19,4 6 3 19 11 N 0,2
09.07.2020 02:00:00 25,2 19,8 8 5 24 13 N -
09.07.2020 01:00:00 24,9 20,4 8 4 27 15 N 0,0
09.07.2020 00:00:00 25,3 20,8 9 5 22 12 NNW 0,0
08.07.2020 23:00:00 25,2 20,7 10 5 21 11 N 0,0
08.07.2020 22:00:00 25,4 20,9 7 4 21 11 NNE 0,0
08.07.2020 21:00:00 25,8 20,1 9 5 20 11 NE 0,0
08.07.2020 20:00:00 26,8 20,2 9 5 27 14 NE -
08.07.2020 19:00:00 27,3 19,4 13 7 24 13 NE 0,0
08.07.2020 18:00:00 28,3 18,4 11 6 27 15 NE 0,0
08.07.2020 17:00:00 29,5 17,3 10 6 29 16 NE 0,0
08.07.2020 16:00:00 29,7 17,5 11 6 25 14 NE 0,0
08.07.2020 15:00:00 30,0 18,4 9 5 26 14 NE 0,0
08.07.2020 14:00:00 29,7 18,2 10 5 23 12 NE -
08.07.2020 13:00:00 29,2 18,3 8 5 22 12 NE 0,0
08.07.2020 12:00:00 28,6 17,8 10 5 22 12 ENE 0,0
08.07.2020 11:00:00 27,9 19,4 8 4 24 13 NE 0,0
08.07.2020 10:00:00 26,7 21,0 8 5 19 10 N 0,0
08.07.2020 09:00:00 25,0 21,3 6 4 16 9 NNW 0,0
08.07.2020 08:00:00 23,3 20,4 5 3 11 6 NW -
08.07.2020 07:00:00 23,2 20,5 3 1 12 6 NW 0,0
08.07.2020 06:00:00 23,5 20,8 2 1 13 7 NNW 0,0
08.07.2020 05:00:00 23,5 20,8 1 0 11 6 NW 0,0
08.07.2020 04:00:00 23,5 20,8 3 2 11 6 NW 0,0
08.07.2020 03:00:00 24,0 20,1 1 1 11 6 NNW 0,0
08.07.2020 02:00:00 24,2 19,7 1 0 7 4 NW -
08.07.2020 01:00:00 23,6 19,9 0 0 3 2 N 0,0
08.07.2020 00:00:00 24,8 21,5 0 0 8 5 N 0,0
07.07.2020 23:00:00 24,6 21,7 2 1 12 7 SW 0,0
07.07.2020 22:00:00 25,1 22,0 5 3 13 7 S 0,0
07.07.2020 21:00:00 25,5 22,0 7 4 15 8 SSW 0,0
07.07.2020 20:00:00 26,2 21,6 8 4 18 10 S -
07.07.2020 19:00:00 26,4 21,6 9 5 21 11 S 0,0
07.07.2020 18:00:00 27,1 21,6 9 5 23 12 S 0,0
07.07.2020 17:00:00 27,4 20,7 11 6 21 11 S 0,0
07.07.2020 16:00:00 27,2 18,5 13 7 22 12 S 0,0
07.07.2020 15:00:00 27,8 17,3 11 6 19 10 S 0,0
07.07.2020 14:00:00 28,3 17,2 8 4 17 9 S -
07.07.2020 13:00:00 28,2 16,5 9 5 18 10 S 0,0
07.07.2020 12:00:00 28,3 16,2 7 4 16 9 SSE 0,0
07.07.2020 11:00:00 27,2 16,5 6 3 11 6 SSE 0,0
07.07.2020 10:00:00 27,5 14,8 1 1 6 4 N 0,0
07.07.2020 09:00:00 25,2 15,5 3 1 6 4 N 0,0
07.07.2020 08:00:00 21,9 14,0 1 1 4 2 NNW -
07.07.2020 07:00:00 21,6 14,3 1 1 5 3 N 0,0
07.07.2020 06:00:00 21,8 13,2 1 1 3 2 N 0,0
07.07.2020 05:00:00 21,9 14,3 1 0 5 3 N 0,0
07.07.2020 04:00:00 22,1 15,0 0 0 5 3 N 0,0
07.07.2020 03:00:00 22,7 15,8 2 1 5 3 WNW 0,0
07.07.2020 02:00:00 23,7 18,8 2 1 5 3 W -
07.07.2020 01:00:00 24,3 18,0 3 1 8 4 SW 0,0
07.07.2020 00:00:00 24,4 17,1 5 3 11 6 S 0,0
06.07.2020 23:00:00 24,7 18,4 4 2 13 7 S 0,0
06.07.2020 22:00:00 24,9 17,9 6 4 13 7 S 0,0
06.07.2020 21:00:00 25,6 16,7 3 2 12 7 S 0,0
06.07.2020 20:00:00 25,7 18,1 8 5 17 9 S -
06.07.2020 19:00:00 25,7 19,1 9 5 19 10 S 0,0
06.07.2020 18:00:00 25,8 19,7 10 5 23 12 S 0,0
06.07.2020 17:00:00 26,2 19,8 10 5 22 12 S 0,0
06.07.2020 16:00:00 25,7 19,3 10 5 21 11 S 0,0
06.07.2020 15:00:00 25,8 20,1 11 6 22 12 S 0,0
06.07.2020 14:00:00 25,6 19,3 11 6 22 12 S -
06.07.2020 13:00:00 25,2 20,2 10 5 21 11 S 0,0
06.07.2020 12:00:00 25,7 19,3 10 5 19 10 S 0,0
06.07.2020 11:00:00 25,7 18,6 6 4 15 8 SSE 0,0
06.07.2020 10:00:00 25,5 18,4 5 3 8 5 SE 0,0
06.07.2020 09:00:00 24,5 17,5 0 0 5 3 N 0,0
06.07.2020 08:00:00 21,8 16,5 1 1 5 3 W -
06.07.2020 07:00:00 21,5 16,5 1 1 6 3 E 0,0
06.07.2020 06:00:00 21,5 15,8 3 2 6 3 WNW 0,0
06.07.2020 05:00:00 22,6 17,1 3 2 6 3 NE 0,0
06.07.2020 04:00:00 22,9 17,1 3 2 7 4 NNE 0,0
06.07.2020 03:00:00 23,4 17,4 4 2 8 4 NW 0,0
06.07.2020 02:00:00 24,1 18,1 2 1 5 3 N -
06.07.2020 01:00:00 24,6 18,3 3 2 8 4 NNE 0,0
06.07.2020 00:00:00 24,7 17,9 3 2 12 7 NNE 0,0
05.07.2020 23:00:00 25,1 17,6 6 3 10 5 N 0,0
05.07.2020 22:00:00 25,7 16,3 5 3 14 8 NNE 0,0
05.07.2020 21:00:00 27,4 15,7 5 3 14 7 NE 0,0
05.07.2020 20:00:00 27,7 16,3 4 2 14 8 SSE -
05.07.2020 19:00:00 27,8 16,1 8 4 18 10 SE 0,0
05.07.2020 18:00:00 28,5 15,8 9 5 20 11 ESE 0,0
05.07.2020 17:00:00 29,0 15,9 9 5 18 10 SE 0,0
05.07.2020 16:00:00 29,1 16,3 8 4 19 10 SE 0,0
05.07.2020 15:00:00 29,2 15,7 9 5 19 11 SE 0,0
05.07.2020 14:00:00 28,8 15,0 10 6 21 11 ESE -
05.07.2020 13:00:00 28,9 16,5 5 3 14 8 SSE 0,0
05.07.2020 12:00:00 28,2 17,1 7 4 15 8 NE 0,0
05.07.2020 11:00:00 27,4 18,9 6 3 19 10 NE 0,0
05.07.2020 10:00:00 26,1 19,5 5 3 18 10 NNE 0,0
05.07.2020 09:00:00 24,6 18,8 6 3 15 8 N 0,0
05.07.2020 08:00:00 22,6 18,2 3 2 11 6 NW -
05.07.2020 07:00:00 22,2 18,4 3 2 9 5 NW 0,0
05.07.2020 06:00:00 22,3 18,9 4 2 13 7 NW 0,0
05.07.2020 05:00:00 22,3 18,9 5 3 13 7 NW 0,0
05.07.2020 04:00:00 22,8 19,2 5 3 14 8 NW 0,0
05.07.2020 03:00:00 23,3 19,2 5 3 15 8 N 0,0
05.07.2020 02:00:00 23,7 19,4 6 3 14 7 NNW -
05.07.2020 01:00:00 24,0 19,3 8 4 16 8 N 0,0
05.07.2020 00:00:00 24,6 19,0 4 2 12 6 N 0,0
04.07.2020 23:00:00 25,4 18,1 5 3 11 6 NNE 0,0
04.07.2020 22:00:00 26,2 15,9 3 2 14 8 NE 0,0
04.07.2020 21:00:00 26,8 14,2 9 5 16 8 ESE 0,0
04.07.2020 20:00:00 27,3 15,3 6 4 17 9 ESE -
04.07.2020 19:00:00 28,2 17,7 7 4 19 11 SSE 0,0
04.07.2020 18:00:00 28,0 16,3 11 6 21 11 E 0,0
04.07.2020 17:00:00 28,7 16,6 10 5 21 11 SE 0,0
04.07.2020 16:00:00 28,6 17,5 9 5 23 13 ESE 0,0
04.07.2020 15:00:00 28,8 18,9 3 2 18 10 SSE 0,0
04.07.2020 14:00:00 29,3 19,6 6 3 17 9 ENE -
04.07.2020 13:00:00 27,6 19,9 6 3 17 9 SSW 0,0
04.07.2020 12:00:00 26,2 19,6 6 3 15 8 SSE 0,0
04.07.2020 11:00:00 26,0 19,9 3 1 13 7 S 0,0
04.07.2020 10:00:00 26,3 20,6 2 1 10 5 N 0,0
04.07.2020 09:00:00 24,2 20,9 3 2 7 4 N 0,0
04.07.2020 08:00:00 23,5 20,6 5 3 10 5 N -
04.07.2020 07:00:00 23,1 20,2 4 2 10 5 N 0,0
04.07.2020 06:00:00 23,2 20,2 5 3 10 5 N 0,0
04.07.2020 05:00:00 23,7 20,0 5 3 10 5 N 0,0

tt = temperature
td = dewpoint
ff = wind speed
fx = gusts
dd = wind direction
rr = precipitation

Next stations